Western Clipper — CFN4802 — position and weather

sailwx.info

Track history (hours):
 
Tides and Currents Weather Stations Pressure Air Temp Water Temp Dewpoint Dewpoint Depression Visibility Wind Speed Wind Dir Waves Ship Positions

Western Clipper

Last reported at 2017-Oct-18 22:20 UTC. Time now 2017-Oct-19 20:12 UTC.
Position N 47°24' W 122°33'.

Length 18 m.

Type: Fishing. MMSI: 316002732.

Date/timePositionNaut miles runAvg speedWind from/ knotsBaromVisibWave heightAir tempDewpointWater temp
2017-Oct-18 22:20N 47°24' W 122°33'0 0.3
2017-Oct-18 22:00N 47°24' W 122°33'0 0.8
2017-Oct-18 21:30N 47°24' W 122°33'0 0.2
2017-Oct-18 21:00N 47°24' W 122°33'0 0.3
2017-Oct-18 20:30N 47°24' W 122°33'0 0.8
2017-Oct-18 20:00N 47°23' W 122°33'0 0.6
2017-Oct-18 19:30N 47°24' W 122°33'0 0.7
2017-Oct-18 18:57N 47°23' W 122°32'0 0.5
2017-Oct-18 18:30N 47°24' W 122°33'0 0.3
2017-Oct-18 17:59N 47°24' W 122°33'0 0.4
2017-Oct-18 17:25N 47°24' W 122°33'0 0.3
2017-Oct-18 17:00N 47°24' W 122°33'0 0.1
2017-Oct-18 16:24N 47°24' W 122°33'2 4.4
2017-Oct-18 15:56N 47°25' W 122°31'3 5.8
2017-Oct-18 15:30N 47°28' W 122°31'1 1.0
2017-Oct-18 15:00N 47°27' W 122°32'0 0.2
2017-Oct-18 13:59N 47°27' W 122°32'0 0.3
2017-Oct-18 13:26N 47°27' W 122°32'0 0.0
2017-Oct-18 12:56N 47°27' W 122°32'0 0.0
2017-Oct-18 12:29N 47°27' W 122°32'0 0.0
2017-Oct-18 11:59N 47°27' W 122°32'0 0.0
2017-Oct-18 11:29N 47°27' W 122°32'0 0.0
2017-Oct-18 10:59N 47°27' W 122°32'0 0.0
2017-Oct-18 10:29N 47°27' W 122°32'0 0.1
2017-Oct-18 09:59N 47°27' W 122°32'0 0.0
2017-Oct-18 09:29N 47°27' W 122°32'0 0.0
2017-Oct-18 08:56N 47°27' W 122°32'0 0.0
2017-Oct-18 08:29N 47°27' W 122°32'0 0.0
2017-Oct-18 07:59N 47°27' W 122°32'0 0.0
2017-Oct-18 07:29N 47°27' W 122°32'0 0.0
2017-Oct-18 06:59N 47°27' W 122°32'0 0.0
2017-Oct-18 06:29N 47°27' W 122°32'0 0.0
2017-Oct-18 05:59N 47°27' W 122°32'0 0.0
2017-Oct-18 05:29N 47°27' W 122°32'0 0.0
2017-Oct-18 04:59N 47°27' W 122°32'0 0.0
2017-Oct-18 04:29N 47°27' W 122°32'0 0.1
2017-Oct-18 03:59N 47°27' W 122°32'0 0.1
2017-Oct-18 03:29N 47°27' W 122°32'0 0.1
2017-Oct-18 02:59N 47°27' W 122°32'0 0.1
2017-Oct-18 02:23N 47°27' W 122°32'0 0.1
2017-Oct-18 01:59N 47°27' W 122°32'0 0.0
2017-Oct-18 01:29N 47°27' W 122°32'0 0.0
2017-Oct-18 00:59N 47°27' W 122°32'0 0.0
2017-Oct-18 00:26N 47°27' W 122°32'1 2.1
2017-Oct-17 23:59N 47°26' W 122°32'4 9.1
2017-Oct-17 23:30N 47°22' W 122°33'2 4.1
2017-Oct-17 22:54N 47°20' W 122°35'0 0.0
2017-Oct-17 22:21N 47°20' W 122°35'0 0.0
2017-Oct-17 21:48N 47°20' W 122°35'0 0.0
2017-Oct-17 21:27N 47°20' W 122°35'0 0.0
2017-Oct-17 20:51N 47°20' W 122°35'0 0.0
2017-Oct-17 20:21N 47°20' W 122°35'0 0.0
2017-Oct-17 12:12N 47°20' W 122°35'0 0.0
2017-Oct-17 12:00N 47°20' W 122°35'0 0.0
2017-Oct-17 11:30N 47°20' W 122°35'0 0.0
2017-Oct-17 10:24N 47°20' W 122°35'0 0.0
2017-Oct-17 08:48N 47°20' W 122°35'0 0.0
2017-Oct-17 08:18N 47°20' W 122°35'0 0.0
2017-Oct-17 08:00N 47°20' W 122°35'0 0.0
2017-Oct-17 07:30N 47°20' W 122°35'0 0.0
2017-Oct-17 01:24N 47°20' W 122°35'0 0.0
2017-Oct-17 00:48N 47°20' W 122°35'0 0.0
2017-Oct-17 00:24N 47°20' W 122°35'0 0.0
2017-Oct-16 23:45N 47°20' W 122°35'0 0.0
2017-Oct-16 23:21N 47°20' W 122°35'0 0.0
2017-Oct-16 21:57N 47°20' W 122°35'0 0.0
2017-Oct-16 21:27N 47°20' W 122°35'0 0.0
2017-Oct-14 19:39N 47°20' W 122°35'  
Track history (hours):
 
Tides and Currents Weather Stations Pressure Air Temp Water Temp Dewpoint Dewpoint Depression Visibility Wind Speed Wind Dir Waves Ship Positions

Western Clipper

Last reported at 2017-Oct-18 22:20 UTC. Time now 2017-Oct-19 20:12 UTC.
Position N 47°24' W 122°33'.

Length 18 m.

Type: Fishing. MMSI: 316002732.

Date/timePositionNaut miles runAvg speedWind from/ knotsBaromVisibWave heightAir tempDewpointWater temp
2017-Oct-18 22:20N 47°24' W 122°33'0 0.3
2017-Oct-18 22:00N 47°24' W 122°33'0 0.8
2017-Oct-18 21:30N 47°24' W 122°33'0 0.2
2017-Oct-18 21:00N 47°24' W 122°33'0 0.3
2017-Oct-18 20:30N 47°24' W 122°33'0 0.8
2017-Oct-18 20:00N 47°23' W 122°33'0 0.6
2017-Oct-18 19:30N 47°24' W 122°33'0 0.7
2017-Oct-18 18:57N 47°23' W 122°32'0 0.5
2017-Oct-18 18:30N 47°24' W 122°33'0 0.3
2017-Oct-18 17:59N 47°24' W 122°33'0 0.4
2017-Oct-18 17:25N 47°24' W 122°33'0 0.3
2017-Oct-18 17:00N 47°24' W 122°33'0 0.1
2017-Oct-18 16:24N 47°24' W 122°33'2 4.4
2017-Oct-18 15:56N 47°25' W 122°31'3 5.8
2017-Oct-18 15:30N 47°28' W 122°31'1 1.0
2017-Oct-18 15:00N 47°27' W 122°32'0 0.2
2017-Oct-18 13:59N 47°27' W 122°32'0 0.3
2017-Oct-18 13:26N 47°27' W 122°32'0 0.0
2017-Oct-18 12:56N 47°27' W 122°32'0 0.0
2017-Oct-18 12:29N 47°27' W 122°32'0 0.0
2017-Oct-18 11:59N 47°27' W 122°32'0 0.0
2017-Oct-18 11:29N 47°27' W 122°32'0 0.0
2017-Oct-18 10:59N 47°27' W 122°32'0 0.0
2017-Oct-18 10:29N 47°27' W 122°32'0 0.1
2017-Oct-18 09:59N 47°27' W 122°32'0 0.0
2017-Oct-18 09:29N 47°27' W 122°32'0 0.0
2017-Oct-18 08:56N 47°27' W 122°32'0 0.0
2017-Oct-18 08:29N 47°27' W 122°32'0 0.0
2017-Oct-18 07:59N 47°27' W 122°32'0 0.0
2017-Oct-18 07:29N 47°27' W 122°32'0 0.0
2017-Oct-18 06:59N 47°27' W 122°32'0 0.0
2017-Oct-18 06:29N 47°27' W 122°32'0 0.0
2017-Oct-18 05:59N 47°27' W 122°32'0 0.0
2017-Oct-18 05:29N 47°27' W 122°32'0 0.0
2017-Oct-18 04:59N 47°27' W 122°32'0 0.0
2017-Oct-18 04:29N 47°27' W 122°32'0 0.1
2017-Oct-18 03:59N 47°27' W 122°32'0 0.1
2017-Oct-18 03:29N 47°27' W 122°32'0 0.1
2017-Oct-18 02:59N 47°27' W 122°32'0 0.1
2017-Oct-18 02:23N 47°27' W 122°32'0 0.1
2017-Oct-18 01:59N 47°27' W 122°32'0 0.0
2017-Oct-18 01:29N 47°27' W 122°32'0 0.0
2017-Oct-18 00:59N 47°27' W 122°32'0 0.0
2017-Oct-18 00:26N 47°27' W 122°32'1 2.1
2017-Oct-17 23:59N 47°26' W 122°32'4 9.1
2017-Oct-17 23:30N 47°22' W 122°33'2 4.1
2017-Oct-17 22:54N 47°20' W 122°35'0 0.0
2017-Oct-17 22:21N 47°20' W 122°35'0 0.0
2017-Oct-17 21:48N 47°20' W 122°35'0 0.0
2017-Oct-17 21:27N 47°20' W 122°35'0 0.0
2017-Oct-17 20:51N 47°20' W 122°35'0 0.0
2017-Oct-17 20:21N 47°20' W 122°35'0 0.0
2017-Oct-17 12:12N 47°20' W 122°35'0 0.0
2017-Oct-17 12:00N 47°20' W 122°35'0 0.0
2017-Oct-17 11:30N 47°20' W 122°35'0 0.0
2017-Oct-17 10:24N 47°20' W 122°35'0 0.0
2017-Oct-17 08:48N 47°20' W 122°35'0 0.0
2017-Oct-17 08:18N 47°20' W 122°35'0 0.0
2017-Oct-17 08:00N 47°20' W 122°35'0 0.0
2017-Oct-17 07:30N 47°20' W 122°35'0 0.0
2017-Oct-17 01:24N 47°20' W 122°35'0 0.0
2017-Oct-17 00:48N 47°20' W 122°35'0 0.0
2017-Oct-17 00:24N 47°20' W 122°35'0 0.0
2017-Oct-16 23:45N 47°20' W 122°35'0 0.0
2017-Oct-16 23:21N 47°20' W 122°35'0 0.0
2017-Oct-16 21:57N 47°20' W 122°35'0 0.0
2017-Oct-16 21:27N 47°20' W 122°35'0 0.0
2017-Oct-14 19:39N 47°20' W 122°35'  

Dump ship's entire track history